Terminal Aerodrome Forecast
Issued by NWS

Home | Current Version | Previous Version | Text Only | Print | Product List | Glossary On
Versions: 1 2 3 4 5 6 7 8 9 10 11 12 13
352
FTUS45 KVEF 280903 AAA
TAFEED
TAF AMD
KEED 280903Z 2809/2906 35012KT P6SM FEW100
     FM281400 35015G25KT P6SM SKC
     FM281700 01025G35KT P6SM SKC
     FM290200 35015G25KT P6SM SKC=

USA.gov is the U.S. government's official web portal to all federal, state and local government web resources and services.